Hlavní strana
METAR-TAF:

METAR-TAF

Letiště :

N'Djamena, Čad

zeměpisná šířka: 12-08N, zeměpisná délka: 015-02E, výška: 295 m

Aktuální stav počasí

Zpráva byla vytvořena před 21 minutami, v 21:00 UTC
Jihojihovýchodní vítr 2 kt
Teplota 28°C
Vlhkost vzduchu 74%
Tlak 1011 hPa
Viditelnost 10 km a více
Žádná oblačnost pod 1500 m, nevyskytují se cumulonimby.

METAR: FTTJ 182100Z 15002KT CAVOK 28/23 Q1011 NOSIG

Čas: 22:21 (21:21 UTC)

Předpověď počasí

Zpráva byla vytvořena před 4 hodinami a 21 minutami, v 17:00 UTC
Předpověď platná od 18 v 18 UTC do 19 v 24 UTC
vítr z různých směrů 3 kt
Viditelnost 10 km a více
Žádná oblačnost pod 1500 m, nevyskytují se cumulonimby.
Pravděpodobnost 30% :
Dočasný
od 18 v 20 UTC do 19 v 06 UTC
bouřka
Dočasný
od 19 v 15 UTC do 19 v 23 UTC
bouřka

TAF: FTTJ 181700Z 1818/1924 VRB03KT CAVOK PROB30 TEMPO 1820/1906 TS TEMPO 1915/1923 TS

Stav a předpovědi počasí z více než 4 000 letišť (zprávy METAR a TAF).

Červené a žluté tečky na mapě představují dostupné meteorologické stanice.

Když kurzor umístíte na tečku, zobrazí se název stanice.

Pak kliknutím zobrazíte stav a předpověď počasí.

Chcete-li změnit mapu, kliknutím na zelené tlačítko se znaménkem +mapu přiblížíte, kliknutím na zelené tlačítko se znaménkem – mapu oddálíte a kliknutím na zelené šipky přejdete na sousední mapy.


METAR-TAF: